Time;durP1;ratioP1;P1;durP2;ratioP2;P2;SDS_P1;SDS_P2;PMS_P1;PMS_P2;Temp;Humidity;BMP_temperature;BMP_pressure;BME280_temperature;BME280_humidity;BME280_pressure;Samples;Min_cycle;Max_cycle;Signal;HPM_P1;HPM_P2
2023/09/08 00:02:26;;;;;;;12.40;5.93;;;16.70;99.90;;;;;;4993829;28;20243;-80
2023/09/08 00:04:53;;;;;;;9.70;6.83;;;16.60;99.90;;;;;;5004505;28;20195;-80
2023/09/08 00:07:18;;;;;;;7.37;5.57;;;16.60;99.90;;;;;;5010078;28;20171;-81
2023/09/08 00:09:44;;;;;;;10.33;6.93;;;16.60;99.90;;;;;;4993901;28;20222;-81
2023/09/08 00:12:10;;;;;;;6.80;5.87;;;16.70;99.90;;;;;;5026520;28;20208;-80
2023/09/08 00:14:36;;;;;;;7.27;5.97;;;16.80;99.90;;;;;;4994467;28;20938;-80
2023/09/08 00:17:02;;;;;;;10.63;6.07;;;16.80;99.90;;;;;;4993690;28;20747;-80
2023/09/08 00:19:27;;;;;;;9.83;6.07;;;16.80;99.90;;;;;;5027274;28;20190;-80
2023/09/08 00:21:53;;;;;;;9.03;6.30;;;16.70;99.90;;;;;;5010025;28;20911;-81
2023/09/08 00:24:19;;;;;;;7.77;6.23;;;16.70;99.90;;;;;;4993333;28;20207;-81
2023/09/08 00:26:45;;;;;;;8.03;5.67;;;16.60;99.90;;;;;;5010286;28;20211;-81
2023/09/08 00:29:11;;;;;;;8.93;6.73;;;16.60;99.90;;;;;;4992624;28;20557;-80
2023/09/08 00:31:36;;;;;;;7.47;5.37;;;16.70;99.90;;;;;;4986329;28;20249;-81
2023/09/08 00:34:02;;;;;;;11.13;7.53;;;16.70;99.90;;;;;;5026512;28;20187;-81
2023/09/08 00:36:28;;;;;;;8.63;6.30;;;16.60;99.90;;;;;;5008050;28;20222;-81
2023/09/08 00:38:54;;;;;;;10.67;6.13;;;16.50;99.90;;;;;;5004489;28;20215;-81
2023/09/08 00:41:20;;;;;;;13.77;6.83;;;16.50;99.90;;;;;;4989889;28;20218;-81
2023/09/08 00:43:45;;;;;;;8.37;6.37;;;16.30;99.90;;;;;;5006377;28;20233;-81
2023/09/08 00:46:12;;;;;;;11.33;6.17;;;16.20;99.90;;;;;;5008612;28;20641;-81
2023/09/08 00:48:38;;;;;;;6.53;5.73;;;16.20;99.90;;;;;;5009069;28;20717;-81
2023/09/08 00:51:07;;;;;;;10.27;6.00;;;16.10;99.90;;;;;;4993077;28;20226;-81
2023/09/08 00:53:33;;;;;;;7.67;5.93;;;16.10;99.90;;;;;;5009618;28;20301;-81
2023/09/08 00:56:00;;;;;;;7.60;6.53;;;16.10;99.90;;;;;;5008767;28;20704;-80
2023/09/08 00:58:26;;;;;;;9.53;6.47;;;16.10;99.90;;;;;;5010012;28;20188;-80
2023/09/08 01:00:51;;;;;;;11.57;7.80;;;16.20;99.90;;;;;;5009482;28;20575;-80
2023/09/08 01:03:17;;;;;;;13.77;6.83;;;16.20;99.90;;;;;;5021326;28;20210;-81
2023/09/08 01:05:46;;;;;;;9.27;6.17;;;16.20;99.90;;;;;;5012897;28;20207;-80
2023/09/08 01:08:13;;;;;;;9.10;5.90;;;16.30;99.90;;;;;;5013080;28;21232;-80
2023/09/08 01:10:41;;;;;;;9.57;5.90;;;16.20;99.90;;;;;;5012905;28;20210;-80
2023/09/08 01:13:08;;;;;;;8.03;7.00;;;16.20;99.90;;;;;;5029362;28;20187;-80
2023/09/08 01:15:33;;;;;;;9.33;6.80;;;16.20;99.90;;;;;;5029019;28;20571;-80
2023/09/08 01:17:59;;;;;;;7.97;5.73;;;16.10;99.90;;;;;;5028979;28;20229;-80
2023/09/08 01:20:46;;;;;;;11.43;6.77;;;16.00;99.90;;;;;;5012292;28;20213;-80
2023/09/08 01:23:21;;;;;;;12.33;6.53;;;15.90;99.90;;;;;;5028851;28;20245;-80
2023/09/08 01:26:07;;;;;;;13.57;6.90;;;15.80;99.90;;;;;;5027600;28;20240;-80
2023/09/08 01:28:33;;;;;;;14.80;7.37;;;15.80;99.90;;;;;;5029319;28;20544;-81
2023/09/08 01:30:59;;;;;;;9.63;6.60;;;15.70;99.90;;;;;;5013169;28;20230;-80
2023/09/08 01:33:26;;;;;;;8.33;7.03;;;15.70;99.90;;;;;;5012542;28;20214;-81
2023/09/08 01:35:52;;;;;;;8.73;5.67;;;15.70;99.90;;;;;;5011096;28;20683;-83
2023/09/08 01:38:18;;;;;;;9.33;6.67;;;15.70;99.90;;;;;;5009278;28;20207;-81
2023/09/08 01:40:44;;;;;;;8.13;6.50;;;15.60;99.90;;;;;;5025023;28;20210;-81
2023/09/08 01:43:10;;;;;;;9.27;6.30;;;15.60;99.90;;;;;;5027772;28;20187;-80
2023/09/08 01:45:36;;;;;;;9.97;6.27;;;15.50;99.90;;;;;;5032237;28;20574;-80
2023/09/08 01:48:01;;;;;;;9.77;6.07;;;15.50;99.90;;;;;;5032595;28;20210;-81
2023/09/08 01:50:27;;;;;;;8.67;6.00;;;15.60;99.90;;;;;;5032363;28;20218;-80
2023/09/08 01:52:53;;;;;;;11.23;7.10;;;15.60;99.90;;;;;;5016602;28;20201;-80
2023/09/08 01:55:20;;;;;;;12.83;7.17;;;15.70;99.90;;;;;;5033465;28;20205;-80
2023/09/08 01:57:46;;;;;;;12.67;7.27;;;15.80;99.90;;;;;;5014158;28;20219;-80
2023/09/08 02:00:12;;;;;;;9.47;6.97;;;15.80;99.90;;;;;;5015807;28;20229;-81
2023/09/08 02:02:39;;;;;;;10.80;6.90;;;15.80;99.90;;;;;;5032286;28;20238;-81
2023/09/08 02:05:05;;;;;;;9.90;6.73;;;15.80;99.90;;;;;;5015500;28;20220;-81
2023/09/08 02:07:31;;;;;;;12.00;6.53;;;15.80;99.90;;;;;;5016430;28;20182;-81
2023/09/08 02:09:57;;;;;;;9.17;6.07;;;15.60;99.90;;;;;;5015880;28;20227;-81
2023/09/08 02:12:23;;;;;;;11.60;7.67;;;15.50;99.90;;;;;;4999291;28;20207;-81
2023/09/08 02:14:48;;;;;;;7.23;6.53;;;15.50;99.90;;;;;;5015654;28;20624;-80
2023/09/08 02:17:14;;;;;;;9.00;6.70;;;15.50;99.90;;;;;;5015039;28;20742;-80
2023/09/08 02:19:40;;;;;;;8.10;6.23;;;15.40;99.90;;;;;;4998788;28;20232;-81
2023/09/08 02:22:06;;;;;;;10.20;6.47;;;15.40;99.90;;;;;;5015911;28;20175;-81
2023/09/08 02:24:31;;;;;;;9.93;5.50;;;15.40;99.90;;;;;;4998450;28;20203;-81
2023/09/08 02:26:57;;;;;;;9.70;6.10;;;15.30;99.90;;;;;;4999348;28;20764;-81
2023/09/08 02:29:23;;;;;;;9.80;6.87;;;15.30;99.90;;;;;;5015367;28;20198;-80
2023/09/08 02:31:49;;;;;;;8.80;6.70;;;15.30;99.90;;;;;;5014599;28;20264;-81
2023/09/08 02:34:15;;;;;;;10.23;6.50;;;15.30;99.90;;;;;;4999786;28;20191;-81
2023/09/08 02:36:40;;;;;;;9.63;6.73;;;15.30;99.90;;;;;;5013118;28;20211;-81
2023/09/08 02:39:07;;;;;;;8.23;5.67;;;15.30;99.90;;;;;;5011613;28;20257;-81
2023/09/08 02:41:33;;;;;;;9.23;5.93;;;15.20;99.90;;;;;;5029848;28;20199;-81
2023/09/08 02:43:58;;;;;;;12.77;5.20;;;15.10;99.90;;;;;;5029157;28;20209;-81
2023/09/08 02:46:24;;;;;;;10.90;6.27;;;14.90;99.90;;;;;;4995732;28;20179;-81
2023/09/08 02:48:51;;;;;;;8.90;5.73;;;14.90;99.90;;;;;;5014598;28;20698;-81
2023/09/08 02:51:16;;;;;;;10.23;7.80;;;15.00;99.90;;;;;;5014581;28;20222;-81
2023/09/08 02:53:42;;;;;;;12.17;7.40;;;15.10;99.90;;;;;;5013314;28;20717;-82
2023/09/08 02:56:09;;;;;;;7.73;5.43;;;15.20;99.90;;;;;;5010962;28;20217;-81
2023/09/08 02:58:35;;;;;;;11.17;7.17;;;15.10;99.90;;;;;;5013075;28;20214;-81
2023/09/08 03:01:13;;;;;;;8.13;6.13;;;15.00;99.90;;;;;;5015624;28;20278;-80
2023/09/08 03:03:40;;;;;;;9.40;6.57;;;15.00;99.90;;;;;;5031381;28;20625;-80
2023/09/08 03:06:05;;;;;;;9.90;7.47;;;15.10;99.90;;;;;;5013498;28;20218;-81
2023/09/08 03:08:31;;;;;;;9.50;6.07;;;15.00;99.90;;;;;;5014452;28;20240;-81
2023/09/08 03:10:58;;;;;;;10.80;5.97;;;15.00;99.90;;;;;;5031277;28;20556;-80
2023/09/08 03:13:25;;;;;;;14.07;7.87;;;14.80;99.90;;;;;;5048117;28;20194;-81
2023/09/08 03:15:52;;;;;;;17.87;6.13;;;14.60;99.90;;;;;;5014664;28;20706;-81
2023/09/08 03:18:18;;;;;;;9.57;5.80;;;14.60;99.90;;;;;;5013194;28;20693;-81
2023/09/08 03:20:47;;;;;;;9.47;6.40;;;14.70;99.90;;;;;;5014238;28;20305;-81
2023/09/08 03:23:13;;;;;;;12.33;7.23;;;14.80;99.90;;;;;;5030887;28;20210;-81
2023/09/08 03:25:39;;;;;;;9.80;5.97;;;14.90;99.90;;;;;;5031043;28;20240;-81
2023/09/08 03:28:05;;;;;;;12.37;7.63;;;14.90;99.90;;;;;;5014882;28;20209;-81
2023/09/08 03:30:30;;;;;;;10.60;6.13;;;14.80;99.90;;;;;;5013738;28;20253;-81
2023/09/08 03:32:56;;;;;;;10.97;5.93;;;14.70;99.90;;;;;;5014043;28;20273;-81
2023/09/08 03:35:22;;;;;;;9.90;6.37;;;14.70;99.90;;;;;;4997707;28;20222;-81
2023/09/08 03:37:47;;;;;;;9.03;6.60;;;14.60;99.90;;;;;;5010259;28;20191;-81
2023/09/08 03:40:13;;;;;;;10.03;7.23;;;14.60;99.90;;;;;;5009517;28;20318;-81
2023/09/08 03:42:41;;;;;;;7.47;5.33;;;14.70;99.90;;;;;;5029373;28;20349;-81
2023/09/08 03:45:07;;;;;;;9.70;6.23;;;14.60;99.90;;;;;;5013987;28;20233;-81
2023/09/08 03:47:33;;;;;;;11.87;6.60;;;14.60;99.90;;;;;;5013405;28;20229;-81
2023/09/08 03:49:59;;;;;;;7.67;6.17;;;14.50;99.90;;;;;;5014387;28;20604;-81
2023/09/08 03:52:25;;;;;;;8.63;5.73;;;14.50;99.90;;;;;;5014365;28;20730;-79
2023/09/08 03:54:51;;;;;;;11.83;6.63;;;14.40;99.90;;;;;;5030216;28;20219;-81
2023/09/08 03:57:16;;;;;;;8.43;5.73;;;14.40;99.90;;;;;;5013952;28;20226;-81
2023/09/08 03:59:42;;;;;;;6.97;5.87;;;14.30;99.90;;;;;;5013163;28;20221;-81
2023/09/08 04:02:08;;;;;;;10.90;6.13;;;14.20;99.90;;;;;;4997291;28;20222;-81
2023/09/08 04:04:34;;;;;;;10.53;6.57;;;14.10;99.90;;;;;;4998101;28;20202;-81
2023/09/08 04:06:59;;;;;;;9.57;7.00;;;14.00;99.90;;;;;;5013635;28;20214;-81
2023/09/08 04:09:25;;;;;;;8.20;6.47;;;14.00;99.90;;;;;;5013910;28;20611;-81
2023/09/08 04:11:51;;;;;;;11.53;6.30;;;14.10;99.90;;;;;;5014047;28;20230;-81
2023/09/08 04:14:17;;;;;;;12.23;6.60;;;14.10;99.90;;;;;;5012642;28;20246;-81
2023/09/08 04:16:43;;;;;;;9.60;6.83;;;14.20;99.90;;;;;;5009791;28;20261;-82
2023/09/08 04:19:08;;;;;;;12.67;7.30;;;14.20;99.90;;;;;;5026740;28;20216;-80
2023/09/08 04:21:35;;;;;;;9.03;6.53;;;14.30;99.90;;;;;;5011257;28;20656;-81
2023/09/08 04:24:00;;;;;;;10.87;7.57;;;14.40;99.90;;;;;;5012610;28;20268;-80
2023/09/08 04:26:26;;;;;;;11.97;6.47;;;14.40;99.90;;;;;;5012125;28;20813;-81
2023/09/08 04:28:52;;;;;;;9.13;5.90;;;14.40;99.90;;;;;;5028800;28;20203;-81
2023/09/08 04:31:19;;;;;;;9.43;6.37;;;14.20;99.90;;;;;;5030109;28;20214;-80
2023/09/08 04:33:44;;;;;;;9.33;6.83;;;14.20;99.90;;;;;;4996419;28;20210;-80
2023/09/08 04:36:11;;;;;;;11.47;6.43;;;14.20;99.90;;;;;;5011642;28;20215;-82
2023/09/08 04:38:36;;;;;;;10.37;7.17;;;14.40;99.90;;;;;;5009044;28;20223;-80
2023/09/08 04:41:02;;;;;;;11.80;7.20;;;14.40;99.90;;;;;;4992575;28;20225;-81
2023/09/08 04:43:28;;;;;;;10.53;6.53;;;14.40;99.90;;;;;;4996217;28;20194;-80
2023/09/08 04:45:54;;;;;;;9.57;5.43;;;14.30;99.90;;;;;;4995638;28;20219;-80
2023/09/08 04:48:19;;;;;;;8.20;6.23;;;14.20;99.90;;;;;;5012248;28;20235;-80
2023/09/08 04:50:45;;;;;;;11.17;7.07;;;14.10;99.90;;;;;;4996241;28;20231;-81
2023/09/08 04:53:11;;;;;;;7.87;5.73;;;14.00;99.90;;;;;;4995596;28;20226;-80
2023/09/08 04:55:37;;;;;;;10.53;7.70;;;14.00;99.90;;;;;;5029303;28;20194;-80
2023/09/08 04:58:02;;;;;;;9.87;6.97;;;14.10;99.90;;;;;;4996576;28;20228;-81
2023/09/08 05:00:28;;;;;;;9.07;6.50;;;14.20;99.90;;;;;;5029297;28;20214;-80
2023/09/08 05:02:54;;;;;;;10.30;6.67;;;14.10;99.90;;;;;;5012719;28;20621;-80
2023/09/08 05:05:20;;;;;;;8.57;6.47;;;14.00;99.90;;;;;;5012868;28;20883;-80
2023/09/08 05:07:46;;;;;;;8.90;6.53;;;13.90;99.90;;;;;;5012286;28;20635;-80
2023/09/08 05:10:12;;;;;;;11.53;8.13;;;13.80;99.90;;;;;;5013172;28;20221;-80
2023/09/08 05:12:37;;;;;;;10.00;7.33;;;13.80;99.90;;;;;;5011781;28;20211;-80
2023/09/08 05:15:10;;;;;;;11.23;7.57;;;14.00;99.90;;;;;;5029079;28;21048;-80
2023/09/08 05:17:35;;;;;;;11.10;7.93;;;14.50;99.90;;;;;;5013626;28;20225;-80
2023/09/08 05:20:03;;;;;;;9.80;8.43;;;14.90;99.90;;;;;;5027205;28;20218;-80
2023/09/08 05:22:28;;;;;;;12.27;7.77;;;15.00;99.90;;;;;;5034856;28;20651;-81
2023/09/08 05:24:54;;;;;;;10.30;7.63;;;14.90;99.90;;;;;;5016304;28;20216;-80
2023/09/08 05:27:20;;;;;;;10.20;7.67;;;14.80;99.90;;;;;;5032893;28;20214;-80
2023/09/08 05:29:46;;;;;;;11.87;8.13;;;14.90;99.90;;;;;;5016006;28;20230;-81
2023/09/08 05:32:11;;;;;;;9.57;7.37;;;15.00;99.90;;;;;;5029651;28;20264;-81
2023/09/08 05:34:38;;;;;;;9.03;7.37;;;15.00;99.90;;;;;;5012710;28;20689;-80
2023/09/08 05:37:03;;;;;;;9.93;7.60;;;15.10;99.90;;;;;;4996913;28;20198;-80
2023/09/08 05:39:29;;;;;;;10.73;7.80;;;15.10;99.90;;;;;;5029007;28;20741;-80
2023/09/08 05:41:55;;;;;;;10.40;8.10;;;15.30;99.90;;;;;;5015887;28;20221;-80
2023/09/08 05:44:25;;;;;;;10.60;6.57;;;15.30;99.90;;;;;;4999726;28;20334;-80
2023/09/08 05:46:50;;;;;;;12.17;8.37;;;15.20;99.90;;;;;;5016242;28;20217;-80
2023/09/08 05:49:17;;;;;;;11.97;5.93;;;15.30;99.90;;;;;;5016664;28;20649;-81
2023/09/08 05:51:44;;;;;;;9.33;6.60;;;15.30;99.90;;;;;;5016374;28;20229;-81
2023/09/08 05:54:10;;;;;;;15.27;7.43;;;15.40;99.90;;;;;;5015795;28;20241;-82
2023/09/08 05:56:37;;;;;;;9.67;7.23;;;15.90;99.90;;;;;;5014852;28;20326;-81
2023/09/08 05:59:03;;;;;;;12.83;9.57;;;16.70;99.90;;;;;;5014476;28;20245;-81
2023/09/08 06:01:30;;;;;;;14.07;10.53;;;17.70;99.90;;;;;;5016664;28;20218;-81
2023/09/08 06:03:56;;;;;;;12.87;9.27;;;18.60;99.90;;;;;;5014378;28;20662;-81
2023/09/08 06:06:22;;;;;;;12.37;7.23;;;19.40;99.90;;;;;;4998789;28;20222;-81
2023/09/08 06:08:48;;;;;;;9.97;7.63;;;19.90;99.90;;;;;;5031520;28;20241;-81
2023/09/08 06:11:14;;;;;;;9.43;7.57;;;20.50;99.90;;;;;;5031301;28;20694;-81
2023/09/08 06:13:40;;;;;;;7.30;6.00;;;21.10;99.90;;;;;;4998744;28;20702;-81
2023/09/08 06:16:06;;;;;;;9.93;7.47;;;21.70;99.90;;;;;;5048238;28;20187;-80
2023/09/08 06:18:31;;;;;;;9.20;7.20;;;22.30;99.90;;;;;;5014709;28;20241;-81
2023/09/08 06:20:57;;;;;;;7.63;5.97;;;21.70;99.90;;;;;;5014663;28;20222;-82
2023/09/08 06:23:23;;;;;;;10.23;6.27;;;20.50;99.90;;;;;;5014755;28;20199;-81
2023/09/08 06:25:50;;;;;;;10.50;6.97;;;19.90;99.90;;;;;;5030570;28;20187;-82
2023/09/08 06:28:15;;;;;;;9.27;6.63;;;19.30;99.90;;;;;;5015460;28;20551;-81
2023/09/08 06:30:41;;;;;;;13.40;6.37;;;19.00;99.90;;;;;;5030543;28;20226;-81
2023/09/08 06:33:10;;;;;;;8.83;6.80;;;18.80;99.90;;;;;;5014881;28;20214;-82
2023/09/08 06:35:36;;;;;;;10.63;7.57;;;18.60;99.90;;;;;;5014610;28;20211;-83
2023/09/08 06:38:02;;;;;;;10.03;7.37;;;18.60;99.90;;;;;;4995344;28;20221;-82
2023/09/08 06:40:31;;;;;;;7.53;6.40;;;18.50;99.90;;;;;;5011664;28;20604;-83
2023/09/08 06:42:57;;;;;;;12.13;6.73;;;18.60;99.90;;;;;;4998706;28;20617;-82
2023/09/08 06:45:23;;;;;;;10.47;6.57;;;18.70;99.90;;;;;;4998696;28;20265;-83
2023/09/08 06:47:50;;;;;;;17.67;8.47;;;19.00;99.90;;;;;;5031575;28;20218;-82
2023/09/08 06:50:16;;;;;;;9.07;7.23;;;20.20;99.90;;;;;;5014598;28;20758;-82
2023/09/08 06:52:42;;;;;;;11.30;8.10;;;21.60;99.90;;;;;;4999304;28;20301;-83
2023/09/08 06:55:09;;;;;;;12.47;7.53;;;23.40;99.90;;;;;;4999550;28;20305;-82
2023/09/08 06:57:35;;;;;;;10.63;7.43;;;24.00;99.90;;;;;;5031303;28;20210;-84
2023/09/08 07:00:01;;;;;;;11.45;6.65;;;24.70;99.90;;;;;;5014846;28;20225;-83
2023/09/08 07:02:27;;;;;;;7.82;6.53;;;25.40;99.90;;;;;;4998094;28;20995;-83
2023/09/08 07:04:52;;;;;;;9.95;7.20;;;25.10;99.90;;;;;;4998467;28;20191;-82
2023/09/08 07:07:20;;;;;;;9.07;6.35;;;25.00;99.90;;;;;;5031515;28;20205;-82
2023/09/08 07:09:46;;;;;;;8.82;7.47;;;24.90;99.90;;;;;;5014950;28;20242;-82
2023/09/08 07:12:11;;;;;;;6.53;5.45;;;24.70;99.90;;;;;;4998549;28;20288;-82
2023/09/08 07:14:38;;;;;;;10.50;6.68;;;25.00;99.90;;;;;;5014938;28;20356;-83
2023/09/08 07:17:03;;;;;;;7.22;5.90;;;25.50;99.90;;;;;;4998002;28;20222;-83
2023/09/08 07:19:29;;;;;;;12.23;6.72;;;24.90;99.90;;;;;;5015117;28;20520;-83
2023/09/08 07:21:55;;;;;;;8.32;6.35;;;25.40;99.90;;;;;;5013977;28;20218;-82
2023/09/08 07:24:21;;;;;;;9.32;6.50;;;25.60;99.90;;;;;;5014305;28;20713;-83
2023/09/08 07:26:47;;;;;;;8.90;6.10;;;25.20;99.90;;;;;;5013686;28;20214;-83
2023/09/08 07:29:13;;;;;;;6.75;6.00;;;25.20;99.90;;;;;;5013850;28;20218;-83
2023/09/08 07:31:39;;;;;;;9.65;5.78;;;25.40;99.90;;;;;;4997027;28;20209;-83
2023/09/08 07:34:05;;;;;;;11.95;6.60;;;25.40;99.90;;;;;;5014404;28;20187;-83
2023/09/08 07:36:30;;;;;;;9.25;6.28;;;26.60;99.90;;;;;;4995340;28;20206;-84
2023/09/08 07:38:56;;;;;;;12.82;6.80;;;26.30;99.90;;;;;;5010478;28;20309;-84
2023/09/08 07:41:22;;;;;;;8.40;6.25;;;27.00;99.90;;;;;;5008915;28;20306;-83
2023/09/08 07:43:47;;;;;;;6.82;5.85;;;27.10;99.90;;;;;;5029669;28;20205;-83
2023/09/08 07:46:13;;;;;;;6.85;6.15;;;27.70;99.90;;;;;;5014296;28;20191;-83
2023/09/08 07:48:39;;;;;;;7.78;5.85;;;27.60;99.90;;;;;;5013761;28;20206;-83
2023/09/08 07:51:05;;;;;;;12.98;6.53;;;27.40;99.90;;;;;;5029965;28;20237;-85
2023/09/08 07:53:31;;;;;;;7.03;6.13;;;27.00;99.90;;;;;;5014096;28;20246;-83
2023/09/08 07:55:57;;;;;;;7.75;6.22;;;27.10;99.90;;;;;;5013604;28;20234;-84
2023/09/08 07:58:22;;;;;;;8.07;6.38;;;26.80;99.90;;;;;;5031302;28;20183;-83
2023/09/08 08:00:48;;;;;;;8.93;6.30;;;26.90;99.90;;;;;;5030260;28;20210;-84
2023/09/08 08:03:14;;;;;;;9.27;6.45;;;27.40;99.90;;;;;;5030588;28;20210;-84
2023/09/08 08:05:40;;;;;;;7.90;6.05;;;27.10;99.90;;;;;;5029823;28;20210;-84
2023/09/08 08:08:06;;;;;;;9.60;6.97;;;28.30;99.90;;;;;;5013892;28;20713;-84
2023/09/08 08:10:32;;;;;;;9.93;6.65;;;28.30;99.90;;;;;;5014184;28;20202;-83
2023/09/08 08:13:07;;;;;;;13.07;6.57;;;27.50;99.90;;;;;;4997140;28;20743;-83
2023/09/08 08:15:42;;;;;;;6.55;5.53;;;27.20;99.90;;;;;;5029586;28;20560;-83
2023/09/08 08:18:09;;;;;;;10.38;6.32;;;27.00;99.90;;;;;;5029562;28;20241;-83
2023/09/08 08:20:35;;;;;;;10.13;6.63;;;27.70;99.90;;;;;;5046135;28;20222;-83
2023/09/08 08:23:02;;;;;;;8.90;5.90;;;28.00;99.90;;;;;;5013462;28;20345;-84
2023/09/08 08:25:28;;;;;;;7.28;6.28;;;28.70;99.90;;;;;;5014625;28;20205;-84
2023/09/08 08:27:56;;;;;;;8.35;6.10;;;28.80;99.90;;;;;;5029450;28;20207;-83
2023/09/08 08:30:22;;;;;;;9.02;6.43;;;27.40;99.90;;;;;;5029187;28;20225;-83
2023/09/08 08:32:48;;;;;;;8.60;6.03;;;26.80;99.90;;;;;;5012205;28;20683;-83
2023/09/08 08:35:16;;;;;;;7.40;6.15;;;27.60;99.90;;;;;;5014038;28;20607;-83
2023/09/08 08:37:42;;;;;;;7.88;6.53;;;27.40;99.90;;;;;;5008528;28;20187;-84
2023/09/08 08:40:11;;;;;;;10.18;7.43;;;27.30;99.90;;;;;;5010393;28;20665;-85
2023/09/08 08:42:36;;;;;;;12.10;6.55;;;26.50;99.90;;;;;;5013026;28;20725;-84
2023/09/08 08:45:04;;;;;;;7.05;6.32;;;26.90;99.90;;;;;;5012651;28;20222;-83
2023/09/08 08:47:30;;;;;;;7.72;5.72;;;27.40;99.90;;;;;;5012788;28;20217;-83
2023/09/08 08:50:00;;;;;;;9.50;6.28;;;27.50;99.90;;;;;;5018431;28;21444;-83
2023/09/08 08:52:27;;;;;;;7.75;6.15;;;27.60;99.90;;;;;;5029030;28;20643;-83
2023/09/08 08:54:53;;;;;;;7.70;6.78;;;27.60;99.90;;;;;;5012357;28;20261;-83
2023/09/08 08:57:20;;;;;;;7.93;6.50;;;28.40;99.90;;;;;;5029220;28;20679;-83
2023/09/08 08:59:48;;;;;;;8.30;6.78;;;28.30;99.90;;;;;;5029286;28;20229;-83
2023/09/08 09:02:14;;;;;;;10.35;6.47;;;27.60;99.90;;;;;;5012623;28;20272;-83
2023/09/08 09:04:41;;;;;;;8.90;6.55;;;28.10;99.90;;;;;;5012763;28;20183;-83
2023/09/08 09:07:07;;;;;;;6.43;5.75;;;28.30;99.90;;;;;;5030693;28;21066;-82
2023/09/08 09:09:34;;;;;;;12.00;6.40;;;29.10;99.90;;;;;;5030160;28;20321;-83
2023/09/08 09:12:02;;;;;;;8.50;6.63;;;28.90;99.90;;;;;;5012320;28;20325;-83
2023/09/08 09:14:28;;;;;;;7.45;6.22;;;29.50;99.90;;;;;;5029271;28;20238;-83
2023/09/08 09:16:56;;;;;;;8.93;6.68;;;28.70;99.90;;;;;;4996269;28;20214;-82
2023/09/08 09:19:31;;;;;;;8.65;6.30;;;28.30;99.90;;;;;;5011600;28;20238;-83
2023/09/08 09:21:57;;;;;;;12.25;6.28;;;28.20;99.90;;;;;;5013169;28;20579;-83
2023/09/08 09:24:38;;;;;;;10.20;6.75;;;28.00;99.90;;;;;;5007023;28;20194;-83
2023/09/08 09:27:08;;;;;;;9.45;6.28;;;27.90;99.90;;;;;;5028409;28;20206;-83
2023/09/08 09:29:44;;;;;;;7.63;6.10;;;28.70;99.90;;;;;;5029041;28;20218;-82
2023/09/08 09:32:10;;;;;;;8.75;6.18;;;29.20;99.90;;;;;;5029791;28;20301;-82
2023/09/08 09:34:36;;;;;;;6.72;5.65;;;30.00;99.90;;;;;;5013085;28;20305;-82
2023/09/08 09:37:05;;;;;;;8.98;5.93;;;30.30;99.90;;;;;;5027206;28;20167;-84
2023/09/08 09:39:30;;;;;;;9.98;6.57;;;30.40;99.90;;;;;;5025811;28;20206;-83
2023/09/08 09:41:57;;;;;;;8.50;5.72;;;30.70;99.90;;;;;;4994504;28;20294;-83
2023/09/08 09:44:24;;;;;;;8.40;5.85;;;30.60;99.90;;;;;;5011979;28;20207;-83
2023/09/08 09:46:53;;;;;;;7.22;6.10;;;30.40;99.90;;;;;;5028833;28;20256;-84
2023/09/08 09:49:19;;;;;;;6.75;6.03;;;31.40;99.90;;;;;;5029512;28;20529;-83
2023/09/08 09:51:47;;;;;;;9.98;8.05;;;32.00;99.90;;;;;;5012244;28;20265;-83
2023/09/08 09:54:15;;;;;;;6.82;5.88;;;31.90;99.90;;;;;;5011573;28;20504;-82
2023/09/08 09:56:41;;;;;;;12.20;5.88;;;30.90;99.90;;;;;;5028372;28;20642;-83
2023/09/08 09:59:12;;;;;;;7.88;6.60;;;30.50;99.90;;;;;;5045047;28;20199;-83
2023/09/08 10:01:39;;;;;;;8.25;6.47;;;31.00;99.90;;;;;;5028336;28;20209;-83
2023/09/08 10:04:06;;;;;;;8.15;6.13;;;31.50;99.90;;;;;;5011732;28;20278;-83
2023/09/08 10:06:33;;;;;;;8.57;6.68;;;32.10;99.90;;;;;;5032022;28;20687;-82
2023/09/08 10:09:04;;;;;;;8.10;6.57;;;33.20;99.90;;;;;;5031997;28;20206;-82
2023/09/08 10:11:38;;;;;;;9.35;6.10;;;33.60;99.90;;;;;;5031903;28;20226;-82
2023/09/08 10:14:07;;;;;;;14.00;6.10;;;33.80;99.90;;;;;;5048526;28;20684;-82
2023/09/08 10:16:36;;;;;;;8.55;5.53;;;34.00;99.90;;;;;;5016230;28;20189;-82
2023/09/08 10:19:07;;;;;;;12.73;5.53;;;34.10;99.90;;;;;;5015182;28;20784;-82
2023/09/08 10:21:39;;;;;;;7.82;6.38;;;34.40;99.90;;;;;;5031734;28;20213;-82
2023/09/08 10:24:14;;;;;;;7.47;6.25;;;34.00;99.90;;;;;;5047803;28;20203;-82
2023/09/08 10:26:43;;;;;;;10.40;6.25;;;33.60;99.90;;;;;;5048447;28;20281;-82
2023/09/08 10:29:10;;;;;;;11.98;6.32;;;33.30;99.90;;;;;;5015518;28;20545;-82
2023/09/08 10:31:39;;;;;;;7.68;6.57;;;34.40;99.90;;;;;;5015918;28;20710;-82
2023/09/08 10:34:06;;;;;;;7.30;6.40;;;34.80;99.90;;;;;;5031949;28;20171;-83
2023/09/08 10:36:34;;;;;;;8.23;5.57;;;34.90;99.90;;;;;;5013762;28;20245;-82
2023/09/08 10:39:29;;;;;;;7.20;5.75;;;35.00;99.90;;;;;;5028312;28;20683;-82
2023/09/08 10:42:19;;;;;;;6.57;5.32;;;34.50;99.90;;;;;;5027477;28;20207;-82
2023/09/08 10:44:47;;;;;;;7.57;5.80;;;35.20;99.90;;;;;;5023898;28;20559;-82
2023/09/08 10:47:14;;;;;;;8.73;6.18;;;34.60;99.90;;;;;;5031390;28;20214;-84
2023/09/08 10:49:40;;;;;;;9.05;5.68;;;34.20;99.90;;;;;;5014671;28;20636;-83
2023/09/08 10:52:11;;;;;;;9.77;5.93;;;33.80;99.90;;;;;;5015638;28;20238;-84
2023/09/08 10:54:44;;;;;;;6.57;5.45;;;34.00;99.90;;;;;;5031304;28;20687;-83
2023/09/08 10:57:14;;;;;;;7.03;5.70;;;34.60;99.90;;;;;;5031508;28;20221;-83
2023/09/08 10:59:59;;;;;;;6.43;5.15;;;34.40;99.90;;;;;;5030947;28;20222;-82
2023/09/08 11:02:38;;;;;;;8.23;5.57;;;34.10;99.90;;;;;;5031736;28;20690;-84
2023/09/08 11:05:10;;;;;;;6.47;5.18;;;33.80;99.90;;;;;;5030793;28;20732;-82
2023/09/08 11:07:37;;;;;;;8.55;5.72;;;32.10;99.90;;;;;;5031609;28;20167;-83
2023/09/08 11:10:04;;;;;;;8.65;5.25;;;33.10;99.90;;;;;;5032611;28;20249;-82
2023/09/08 11:12:31;;;;;;;7.03;6.25;;;31.80;99.90;;;;;;5013715;28;20586;-81
2023/09/08 11:15:00;;;;;;;7.40;5.22;;;31.10;99.90;;;;;;5031076;28;20249;-83
2023/09/08 11:17:27;;;;;;;7.25;6.35;;;30.30;99.90;;;;;;5014627;28;20220;-81
2023/09/08 11:19:54;;;;;;;5.95;4.72;;;30.10;99.90;;;;;;5014414;28;20183;-83
2023/09/08 11:22:26;;;;;;;7.10;5.75;;;30.00;99.90;;;;;;5015025;28;20733;-82
2023/09/08 11:24:53;;;;;;;7.00;5.75;;;31.00;99.90;;;;;;5046673;28;20210;-83
2023/09/08 11:27:20;;;;;;;7.53;5.93;;;30.90;99.90;;;;;;5030180;28;20572;-82
2023/09/08 11:29:47;;;;;;;9.68;5.82;;;30.60;99.90;;;;;;5029571;28;20211;-82
2023/09/08 11:32:13;;;;;;;7.82;5.68;;;31.10;99.90;;;;;;5014255;28;20801;-82
2023/09/08 11:34:40;;;;;;;7.20;5.63;;;32.10;99.90;;;;;;5014483;28;20627;-82
2023/09/08 11:37:16;;;;;;;7.78;5.70;;;31.70;99.90;;;;;;5011146;28;20240;-84
2023/09/08 11:39:42;;;;;;;6.03;5.38;;;31.90;99.90;;;;;;5025793;28;20744;-85
2023/09/08 11:42:11;;;;;;;8.23;5.45;;;32.90;99.90;;;;;;5026957;28;21094;-81
2023/09/08 11:44:37;;;;;;;5.65;4.85;;;32.80;99.90;;;;;;5029993;28;20575;-82
2023/09/08 11:47:04;;;;;;;7.40;5.45;;;32.30;99.90;;;;;;5029657;28;20360;-82
2023/09/08 11:49:36;;;;;;;7.13;4.50;;;32.30;99.90;;;;;;5030090;28;20205;-83
2023/09/08 11:52:03;;;;;;;5.47;4.70;;;32.70;99.90;;;;;;5029896;28;20264;-81
2023/09/08 11:54:31;;;;;;;7.00;5.47;;;33.20;99.90;;;;;;5029584;28;20713;-81
2023/09/08 11:57:02;;;;;;;6.25;4.90;;;33.20;99.90;;;;;;5028886;28;20214;-81
2023/09/08 11:59:34;;;;;;;5.07;4.53;;;32.30;99.90;;;;;;5029695;28;20675;-80
2023/09/08 12:02:02;;;;;;;6.95;4.95;;;31.60;99.90;;;;;;5028602;28;20210;-80
2023/09/08 12:04:28;;;;;;;5.85;4.70;;;31.70;99.90;;;;;;5028889;28;20229;-82
2023/09/08 12:07:16;;;;;;;6.57;4.80;;;32.20;99.90;;;;;;5003578;28;20695;-81
2023/09/08 12:10:17;;;;;;;5.75;4.68;;;32.00;99.90;;;;;;4963447;28;20257;-81
2023/09/08 12:13:01;;;;;;;5.28;4.78;;;32.20;99.90;;;;;;5031211;28;20218;-80
2023/09/08 12:16:24;;;;;;;8.30;4.72;;;32.20;99.90;;;;;;5035825;28;20229;-81
2023/09/08 12:18:50;;;;;;;5.93;4.65;;;31.70;99.90;;;;;;5007340;28;20238;-81
2023/09/08 12:21:25;;;;;;;6.93;5.10;;;31.60;99.90;;;;;;4999358;28;20225;-81
2023/09/08 12:24:38;;;;;;;5.80;3.92;;;31.10;99.90;;;;;;5015422;28;20197;-81
2023/09/08 12:27:25;;;;;;;5.20;4.70;;;31.10;99.90;;;;;;5022815;28;20252;-80
2023/09/08 12:30:01;;;;;;;7.97;4.72;;;31.00;99.90;;;;;;5028370;28;20213;-81
2023/09/08 12:32:59;;;;;;;5.35;4.53;;;31.10;99.90;;;;;;4981027;28;21171;-80
2023/09/08 12:36:24;;;;;;;6.43;5.07;;;31.20;99.90;;;;;;5031131;28;20222;-82
2023/09/08 12:39:21;;;;;;;5.53;4.85;;;31.00;99.90;;;;;;5015503;28;20591;-81
2023/09/08 12:42:10;;;;;;;7.45;4.63;;;30.90;99.90;;;;;;5011315;28;20214;-81
2023/09/08 12:44:44;;;;;;;5.70;5.10;;;31.10;99.90;;;;;;5008262;28;20713;-81
2023/09/08 12:47:17;;;;;;;7.85;4.90;;;30.70;99.90;;;;;;5028262;28;21038;-82
2023/09/08 12:49:43;;;;;;;7.30;4.47;;;30.80;99.90;;;;;;5028992;28;20183;-83